Latest Weather Observations for Ernabella/Pukatja

IDS60801

Issued at 4:05 pm CST Thursday 17 April 2014 (issued every 30 minutes, with the page automatically refreshed every 10 minutes)

About weather observations | Map of weather stations | Latest weather observations for SA | Other Formats
Station Details ID: 016097 Name: PUKATJA Lat: -26.26 Lon: 132.18 Height: 703.2 m
Data from the previous 72 hours. | See also: Recent months at Ernabella/Pukatja
Date/Time
CST
Temp
°C
App
Temp
°C
Dew
Point
Rel
Hum
%
Delta-T
°C
Wind Press
QNH
hPa
Press
MSL
hPa
Rain
since 9 am
mm
Dir
 
Spd
km/h
Gust
km/h
Spd
kts
Gust
kts
17/04:00pm 26.1 21.8 0.7 19 12.3 E 13 28 7 15 1020.8 - 0.0
17/03:30pm 26.4 22.2 1.7 20 12.2 ESE 13 24 7 13 1021.0 - 0.0
17/03:00pm 26.6 23.1 1.1 19 12.5 E 9 13 5 7 1021.2 1018.1 0.0
17/02:30pm 25.4 21.6 1.5 21 11.7 E 11 24 6 13 1021.3 - 0.0
17/02:00pm 26.0 23.2 3.3 23 11.6 ESE 7 19 4 10 1021.6 - 0.0
17/01:30pm 25.4 22.3 3.4 24 11.2 E 9 15 5 8 1022.0 - 0.0
17/01:00pm 24.9 20.3 3.5 25 10.9 ENE 17 24 9 13 1022.5 - 0.0
17/12:30pm 24.5 20.4 4.3 27 10.4 ENE 15 26 8 14 1022.9 - 0.0
17/12:00pm 24.3 20.1 3.6 26 10.5 E 15 20 8 11 1023.4 1020.2 0.0
17/11:30am 23.0 20.0 4.0 29 9.6 E 9 20 5 11 1023.7 - 0.0
17/11:00am 23.2 19.6 5.1 31 9.4 E 13 20 7 11 1023.9 - 0.0
17/10:30am 22.6 19.1 5.5 33 8.9 NE 13 20 7 11 1024.0 - 0.0
17/10:00am 21.7 17.5 5.6 35 8.3 NE 17 22 9 12 1024.1 - 0.0
17/09:30am 20.9 16.7 5.7 37 7.8 ENE 17 22 9 12 1024.1 - 0.0
17/09:00am 19.4 16.0 5.8 41 6.9 ENE 13 17 7 9 1024.0 1020.9 0.0
17/08:30am 18.5 15.9 6.0 44 6.4 ENE 9 13 5 7 1023.9 - 0.0
17/08:00am 16.4 14.4 7.3 55 4.7 E 7 7 4 4 1023.6 - 0.0
17/07:30am 11.9 11.2 7.0 72 2.4 CALM 0 0 0 0 1023.2 - 0.0
17/07:00am 10.5 9.6 6.1 74 2.1 CALM 0 0 0 0 1023.1 - 0.0
17/06:30am 10.3 9.4 6.1 75 2.0 CALM 0 0 0 0 1022.8 - 0.0
17/06:00am 11.3 10.4 6.0 70 2.6 SW 0 0 0 0 1022.7 1019.6 0.0
17/05:30am 12.8 11.4 5.5 61 3.5 SW 2 6 1 3 1022.6 - 0.0
17/05:00am 12.4 10.2 5.3 62 3.4 SW 6 7 3 4 1022.3 - 0.0
17/04:30am 12.7 10.8 5.1 60 3.7 E 4 6 2 3 1022.1 - 0.0
17/04:00am 12.5 10.9 4.7 59 3.7 E 2 6 1 3 1022.0 - 0.0
17/03:30am 14.4 11.8 4.1 50 4.9 E 7 9 4 5 1022.0 - 0.0
17/03:00am 14.4 11.8 4.4 51 4.8 NE 7 9 4 5 1022.1 1018.9 0.0
17/02:30am 13.8 10.8 3.9 51 4.7 NE 9 11 5 6 1022.1 - 0.0
17/02:00am 14.1 11.4 3.8 50 4.9 NE 7 9 4 5 1022.2 - 0.0
17/01:30am 15.9 13.1 3.0 42 6.1 ENE 7 9 4 5 1022.3 - 0.0
17/01:00am 16.6 13.5 3.6 42 6.2 NE 9 15 5 8 1022.5 - 0.0
17/12:30am 18.6 14.6 2.9 35 7.6 SE 13 20 7 11 1022.4 - 0.0
17/12:00am 16.7 13.5 3.0 40 6.5 E 9 13 5 7 1022.5 1019.4 0.0
 
Date/Time
CST
Temp
°C
App
Temp
°C
Dew
Point
Rel
Hum
%
Delta-T
°C
Wind Press
QNH
hPa
Press
MSL
hPa
Rain
since 9 am
mm
Dir
 
Spd
km/h
Gust
km/h
Spd
kts
Gust
kts
16/11:30pm 16.5 13.3 2.9 40 6.4 ESE 9 13 5 7 1022.6 - 0.0
16/11:00pm 19.3 15.2 2.2 32 8.2 ESE 13 19 7 10 1022.7 - 0.0
16/10:30pm 19.8 15.3 2.2 31 8.4 SE 15 19 8 10 1022.6 - 0.0
16/10:00pm 19.7 16.0 2.6 32 8.2 SE 11 17 6 9 1022.5 - 0.0
16/09:30pm 20.0 16.0 2.8 32 8.3 SE 13 20 7 11 1022.3 - 0.0
16/09:00pm 20.0 16.0 2.8 32 8.3 SE 13 20 7 11 1022.2 1019.0 0.0
16/08:30pm 21.0 16.5 2.3 29 9.0 ESE 15 20 8 11 1022.0 - 0.0
16/08:00pm 20.1 16.0 2.5 31 8.5 ESE 13 17 7 9 1021.7 - 0.0
16/07:30pm 20.8 16.8 2.6 30 8.8 SE 13 17 7 9 1021.3 - 0.0
16/07:00pm 21.4 17.4 2.6 29 9.2 ESE 13 17 7 9 1020.9 - 0.0
16/06:30pm 22.0 17.5 2.2 27 9.6 ESE 15 20 8 11 1020.7 - 0.0
16/06:00pm 23.3 18.7 1.6 24 10.5 ESE 15 20 8 11 1020.5 1017.3 0.0
16/05:30pm 24.2 19.6 1.8 23 11.0 SE 15 26 8 14 1020.2 - 0.0
16/05:00pm 24.5 19.5 1.4 22 11.3 SSE 17 24 9 13 1020.1 - 0.0
16/04:30pm 25.3 21.0 0.7 20 11.9 SE 13 19 7 10 1020.1 - 0.0
16/04:00pm 25.2 20.2 1.3 21 11.7 ESE 17 22 9 12 1019.9 - 0.0
16/03:30pm 25.0 20.3 1.2 21 11.6 ESE 15 24 8 13 1020.1 - 0.0
16/03:00pm 25.2 21.4 2.0 22 11.5 SSE 11 20 6 11 1020.4 1017.2 0.0
16/02:30pm 25.1 21.8 2.5 23 11.3 ENE 9 17 5 9 1020.6 - 0.0
16/02:00pm 24.1 20.1 0.4 21 11.3 ESE 11 19 6 10 1020.8 - 0.0
16/01:30pm 24.9 21.7 3.0 24 11.0 S 9 19 5 10 1021.3 - 0.0
16/01:00pm 24.0 19.2 2.8 25 10.6 S 17 22 9 12 1021.7 - 0.0
16/12:30pm 23.2 18.9 3.2 27 10.0 SSE 15 22 8 12 1022.2 - 0.0
16/12:00pm 22.5 19.6 4.5 31 9.1 S 9 17 5 9 1022.7 1019.6 0.0
16/11:30am 22.5 19.2 4.5 31 9.2 SSE 11 20 6 11 1023.1 - 0.0
16/11:00am 21.4 17.6 5.7 36 8.1 SE 15 24 8 13 1023.4 - 0.0
16/10:30am 20.5 16.8 4.5 35 8.0 ESE 13 20 7 11 1023.6 - 0.0
16/10:00am 20.1 16.5 5.0 37 7.6 ESE 13 20 7 11 1023.8 - 0.0
16/09:30am 19.8 17.3 4.7 37 7.6 E 7 13 4 7 1023.7 - 0.0
16/09:00am 18.5 16.1 4.3 39 7.0 E 6 9 3 5 1023.7 1020.6 0.0
16/08:30am 16.2 15.1 5.2 48 5.4 CALM 0 0 0 0 1023.5 - 0.0
16/08:00am 13.2 12.5 6.8 65 3.2 CALM 0 0 0 0 1023.4 - 0.0
16/07:30am 10.2 9.4 6.7 79 1.7 CALM 0 0 0 0 1022.9 - 0.0
16/07:00am 8.6 7.7 6.1 84 1.2 CALM 0 0 0 0 1022.6 - 0.0
16/06:30am 8.9 7.9 5.5 79 1.6 CALM 0 0 0 0 1022.4 - 0.0
16/06:00am 10.2 9.2 5.6 73 2.2 CALM 0 0 0 0 1022.1 1018.9 0.0
16/05:30am 10.9 10.0 5.9 71 2.4 CALM 0 0 0 0 1022.1 - 0.0
16/05:00am 11.7 10.6 5.3 65 3.1 CALM 0 0 0 0 1022.0 - 0.0
16/04:30am 12.3 11.3 5.7 64 3.2 CALM 0 0 0 0 1021.8 - 0.0
16/04:00am 13.9 12.0 5.0 55 4.3 NE 4 6 2 3 1021.8 - 0.0
16/03:30am 13.2 10.8 5.1 58 3.9 NNE 7 9 4 5 1021.8 - 0.0
16/03:00am 15.6 11.9 4.6 48 5.3 ESE 13 19 7 10 1021.8 1018.6 0.0
16/02:30am 16.5 12.4 4.5 45 5.9 ESE 15 20 8 11 1022.1 - 0.0
16/02:00am 16.0 12.3 4.7 47 5.5 ESE 13 15 7 8 1022.2 - 0.0
16/01:30am 15.3 12.1 5.2 51 5.0 ESE 11 17 6 9 1022.3 - 0.0
16/01:00am 15.0 12.2 5.2 52 4.8 E 9 11 5 6 1022.5 - 0.0
16/12:30am 16.2 13.0 5.2 48 5.4 SE 11 22 6 12 1022.5 - 0.0
16/12:00am 16.9 13.0 5.2 46 5.8 SE 15 20 8 11 1022.5 1019.4 0.0
 
Date/Time
CST
Temp
°C
App
Temp
°C
Dew
Point
Rel
Hum
%
Delta-T
°C
Wind Press
QNH
hPa
Press
MSL
hPa
Rain
since 9 am
mm
Dir
 
Spd
km/h
Gust
km/h
Spd
kts
Gust
kts
15/11:30pm 17.2 13.3 5.2 45 6.0 SE 15 20 8 11 1022.7 - 0.0
15/11:00pm 17.1 13.6 5.4 46 5.9 SSE 13 15 7 8 1022.8 - 0.0
15/10:30pm 17.1 13.5 5.1 45 6.0 SSE 13 17 7 9 1022.8 - 0.0
15/10:00pm 17.7 13.7 5.0 43 6.3 SSE 15 19 8 10 1022.7 - 0.0
15/09:30pm 18.1 14.4 4.7 41 6.7 SSE 13 20 7 11 1022.6 - 0.0
15/09:00pm 18.4 14.7 4.6 40 6.8 SSE 13 17 7 9 1022.5 1019.4 0.0
15/08:30pm 18.7 15.3 4.1 38 7.2 ESE 11 15 6 8 1022.1 - 0.0
15/08:00pm 18.9 15.6 4.3 38 7.2 ESE 11 15 6 8 1021.8 - 0.0
15/07:30pm 19.7 16.0 4.2 36 7.7 ESE 13 19 7 10 1021.6 - 0.0
15/07:00pm 20.1 16.0 4.2 35 7.9 ESE 15 19 8 10 1021.1 - 0.0
15/06:30pm 20.8 16.6 4.0 33 8.4 ESE 15 22 8 12 1020.8 - 0.0
15/06:00pm 22.0 18.2 4.1 31 9.0 SE 13 20 7 11 1020.6 1017.4 0.0
15/05:30pm 22.7 18.2 4.2 30 9.4 ESE 17 24 9 13 1020.3 - 0.0
15/05:00pm 23.2 19.2 4.7 30 9.5 SE 15 24 8 13 1020.2 - 0.0
15/04:30pm 23.3 19.2 4.3 29 9.7 SE 15 22 8 12 1020.2 - 0.0
15/04:00pm 23.7 19.5 5.6 31 9.5 SSE 17 26 9 14 1020.3 - 0.0
15/03:30pm 23.5 19.2 5.4 31 9.4 E 17 26 9 14 1020.5 - 0.0
15/03:00pm 23.6 20.2 6.0 32 9.3 SE 13 20 7 11 1020.4 1017.2 0.0
15/02:30pm 23.7 19.1 6.5 33 9.2 SSE 20 26 11 14 1020.4 - 0.0
15/02:00pm 22.6 18.7 5.5 33 8.9 ESE 15 28 8 15 1020.7 - 0.0
15/01:30pm 22.4 18.8 6.6 36 8.4 SE 15 26 8 14 1021.2 - 0.0
15/01:00pm 22.2 18.5 6.4 36 8.3 SE 15 28 8 15 1021.7 - 0.0
15/12:30pm 21.4 17.5 7.3 40 7.5 SE 17 28 9 15 1022.0 - 0.0
15/12:00pm 21.2 16.9 7.1 40 7.5 SSE 19 26 10 14 1022.5 1019.4 0.0
15/11:30am 20.2 16.7 7.2 43 6.9 E 15 22 8 12 1022.8 - 0.0
15/11:00am 19.8 15.6 7.5 45 6.5 ESE 19 26 10 14 1023.2 - 0.0
15/10:30am 19.9 16.6 7.9 46 6.4 ESE 15 26 8 14 1023.1 - 0.0
15/10:00am 19.0 15.0 8.4 50 5.7 ESE 19 28 10 15 1023.1 - 0.0
15/09:30am 17.5 13.5 8.1 54 5.0 SE 19 26 10 14 1023.6 - 0.0
15/09:00am 16.4 12.2 7.6 56 4.6 SE 19 24 10 13 1023.6 1020.4 0.0
15/08:30am 15.7 11.5 7.5 58 4.2 SSE 19 24 10 13 1023.4 - 0.0
15/08:00am 14.9 11.0 7.2 60 3.9 SSE 17 22 9 12 1023.2 - 0.0
15/07:30am 14.5 10.2 6.8 60 3.9 SSE 19 26 10 14 1022.8 - 0.0
15/07:00am 13.6 9.2 6.7 63 3.5 SSE 19 20 10 11 1022.2 - 0.0
15/06:30am 13.4 9.4 6.7 64 3.4 SSE 17 20 9 11 1021.9 - 0.0
15/06:00am 13.6 9.3 6.9 64 3.4 SE 19 22 10 12 1021.6 1018.4 0.0
15/05:30am 14.0 9.7 7.1 63 3.5 SE 19 24 10 13 1021.4 - 0.0
15/05:00am 13.7 9.8 7.2 65 3.3 SSE 17 20 9 11 1021.7 - 0.0
15/04:30am 13.9 10.1 7.4 65 3.3 SE 17 20 9 11 1021.4 - 0.0
15/04:00am 14.2 10.0 7.5 64 3.4 SE 19 24 10 13 1021.3 - 0.0
15/03:30am 14.3 10.5 7.6 64 3.4 SE 17 20 9 11 1021.4 - 0.0
15/03:00am 14.4 11.0 7.5 63 3.5 SSE 15 20 8 11 1021.7 1018.5 0.0
15/02:30am 14.6 10.8 7.4 62 3.7 SE 17 20 9 11 1021.7 - 0.0
15/02:00am 14.8 11.0 7.4 61 3.8 SE 17 28 9 15 1021.9 - 0.0
15/01:30am 15.1 11.3 7.4 60 4.0 SE 17 22 9 12 1022.1 - 0.0
15/01:00am 15.4 11.9 7.2 58 4.2 SE 15 24 8 13 1022.1 - 0.0
15/12:30am 15.6 12.1 7.1 57 4.4 SE 15 24 8 13 1022.3 - 0.0
15/12:00am 15.8 12.6 7.0 56 4.5 SE 13 19 7 10 1022.5 1019.4 0.0
 
Date/Time
CST
Temp
°C
App
Temp
°C
Dew
Point
Rel
Hum
%
Delta-T
°C
Wind Press
QNH
hPa
Press
MSL
hPa
Rain
since 9 am
mm
Dir
 
Spd
km/h
Gust
km/h
Spd
kts
Gust
kts
14/11:30pm 16.4 12.5 7.1 54 4.8 SSE 17 26 9 14 1022.6 - 0.0
14/11:00pm 16.6 12.7 7.0 53 4.9 SSE 17 24 9 13 1022.8 - 0.0
14/10:30pm 16.9 13.0 7.0 52 5.1 SSE 17 24 9 13 1022.7 - 0.0
14/10:00pm 17.1 13.5 6.9 51 5.3 SE 15 28 8 15 1022.7 - 0.0
14/09:30pm 17.4 13.8 6.9 50 5.4 SSE 15 20 8 11 1022.7 - 0.0
14/09:00pm 17.6 14.5 7.1 50 5.4 SSE 13 17 7 9 1022.4 1019.3 0.0
14/08:30pm 18.2 15.4 7.0 48 5.8 SE 11 22 6 12 1022.1 - 0.0
14/08:00pm 18.5 14.9 6.7 46 6.1 SE 15 19 8 10 1021.7 - 0.0
14/07:30pm 18.8 15.1 6.3 44 6.4 SSE 15 20 8 11 1021.2 - 0.0
14/07:00pm 19.2 15.0 5.6 41 6.9 SSE 17 20 9 11 1020.8 - 0.0
14/06:30pm 19.8 15.5 5.1 38 7.4 SSE 17 26 9 14 1020.3 - 0.0
14/06:00pm 20.6 15.6 4.6 35 8.0 SE 20 28 11 15 1019.9 1016.8 0.0
14/05:30pm 21.2 16.3 5.1 35 8.2 SSE 20 30 11 16 1019.3 - 0.0
14/05:00pm 22.2 17.4 5.6 34 8.6 ESE 20 30 11 16 1019.0 - 0.0
14/04:30pm 21.8 16.9 5.3 34 8.5 SE 20 33 11 18 1019.0 - 0.0

Other Formats:

Comma delimited format used in spreadsheet applications
http://www.bom.gov.au/fwo/IDS60801/IDS60801.94474.axf

JavaScript Object Notation format (JSON) in row-major order
http://www.bom.gov.au/fwo/IDS60801/IDS60801.94474.json